createdAt,value
2023-02-22T00:02:27.144Z,15.90
2023-02-22T00:04:55.948Z,17.43
2023-02-22T00:07:26.581Z,16.23
2023-02-22T00:09:57.211Z,15.10
2023-02-22T00:12:27.973Z,19.03
2023-02-22T00:14:55.995Z,18.27
2023-02-22T00:17:24.357Z,15.90
2023-02-22T00:19:52.296Z,20.27
2023-02-22T00:22:20.616Z,17.30
2023-02-22T00:24:54.662Z,16.73
2023-02-22T00:27:43.739Z,21.97
2023-02-22T00:30:22.184Z,16.37
2023-02-22T00:32:53.412Z,17.13
2023-02-22T00:35:23.216Z,17.67
2023-02-22T00:37:53.257Z,16.57
2023-02-22T00:40:25.526Z,15.07
2023-02-22T00:42:58.753Z,17.50
2023-02-22T00:45:29.237Z,19.77
2023-02-22T00:48:01.031Z,16.87
2023-02-22T00:50:33.939Z,17.80
2023-02-22T00:53:04.776Z,13.60
2023-02-22T00:55:38.050Z,17.90
2023-02-22T00:58:32.118Z,14.73
2023-02-22T01:00:59.774Z,18.80
2023-02-22T01:06:32.301Z,18.10
2023-02-22T01:09:05.766Z,22.30
2023-02-22T01:11:33.486Z,17.17
2023-02-22T01:14:03.135Z,17.00
2023-02-22T01:19:22.840Z,16.67
2023-02-22T01:21:51.115Z,14.60
2023-02-22T01:24:19.560Z,19.80
2023-02-22T01:27:04.941Z,14.60
2023-02-22T01:29:38.153Z,18.17
2023-02-22T01:32:07.257Z,19.93
2023-02-22T01:34:37.202Z,15.23
2023-02-22T01:37:12.020Z,19.97
2023-02-22T01:39:40.025Z,19.47
2023-02-22T01:42:11.955Z,15.90
2023-02-22T01:44:43.138Z,15.07
2023-02-22T01:47:13.308Z,17.00
2023-02-22T01:49:51.477Z,16.90
2023-02-22T01:52:24.826Z,14.40
2023-02-22T01:55:00.594Z,17.63
2023-02-22T01:57:40.238Z,13.60
2023-02-22T02:00:21.354Z,20.63
2023-02-22T02:03:08.190Z,17.43
2023-02-22T02:05:41.483Z,13.37
2023-02-22T02:08:17.841Z,13.37
2023-02-22T02:10:47.590Z,18.93
2023-02-22T02:13:23.643Z,18.70
2023-02-22T02:16:04.387Z,17.67
2023-02-22T02:18:32.791Z,17.93
2023-02-22T02:21:39.906Z,13.37
2023-02-22T02:24:42.688Z,17.47
2023-02-22T02:27:15.217Z,17.67
2023-02-22T02:30:19.262Z,15.80
2023-02-22T02:32:54.882Z,15.60
2023-02-22T02:35:36.529Z,12.33
2023-02-22T02:38:35.476Z,17.27
2023-02-22T02:41:28.081Z,16.90
2023-02-22T02:44:04.944Z,15.60
2023-02-22T02:46:44.467Z,14.57
2023-02-22T02:49:31.953Z,16.30
2023-02-22T02:52:01.929Z,12.93
2023-02-22T02:54:33.988Z,16.33
2023-02-22T02:57:05.562Z,14.80
2023-02-22T02:59:44.846Z,15.07
2023-02-22T03:02:38.580Z,15.57
2023-02-22T03:05:28.876Z,11.53
2023-02-22T03:08:08.184Z,14.70
2023-02-22T03:10:52.899Z,15.33
2023-02-22T03:13:32.848Z,15.60
2023-02-22T03:16:28.232Z,18.30
2023-02-22T03:19:07.384Z,13.83
2023-02-22T03:21:51.584Z,12.50
2023-02-22T03:24:33.016Z,14.33
2023-02-22T03:27:09.537Z,15.83
2023-02-22T03:29:48.127Z,12.33
2023-02-22T03:32:20.169Z,17.40
2023-02-22T03:34:54.738Z,14.30
2023-02-22T03:37:33.943Z,16.03
2023-02-22T03:40:13.849Z,15.77
2023-02-22T03:42:44.520Z,15.97
2023-02-22T03:45:16.346Z,17.90
2023-02-22T03:47:51.307Z,10.23
2023-02-22T03:50:22.592Z,15.43
2023-02-22T03:52:52.126Z,17.03
2023-02-22T03:55:19.882Z,14.60
2023-02-22T03:57:51.748Z,17.00
2023-02-22T04:00:26.728Z,14.50
2023-02-22T04:02:54.776Z,13.23
2023-02-22T04:05:27.558Z,14.50
2023-02-22T04:08:03.389Z,13.80
2023-02-22T04:10:31.659Z,12.20
2023-02-22T04:13:00.969Z,11.93
2023-02-22T04:15:28.731Z,14.43
2023-02-22T04:17:57.029Z,13.03
2023-02-22T04:20:28.559Z,12.20
2023-02-22T04:22:58.542Z,12.23
2023-02-22T04:25:27.073Z,14.07
2023-02-22T04:27:58.051Z,11.90
2023-02-22T04:30:31.603Z,10.63
2023-02-22T04:33:00.445Z,12.23
2023-02-22T04:35:28.801Z,13.87
2023-02-22T04:38:00.644Z,15.03
2023-02-22T04:40:28.499Z,14.20
2023-02-22T04:42:56.632Z,13.00
2023-02-22T04:45:27.604Z,11.40
2023-02-22T04:48:08.664Z,16.60
2023-02-22T04:50:36.590Z,16.03
2023-02-22T04:53:10.526Z,14.07
2023-02-22T04:55:38.395Z,13.30
2023-02-22T04:58:09.166Z,20.13
2023-02-22T05:00:40.865Z,11.10
2023-02-22T05:03:08.829Z,14.90
2023-02-22T05:05:37.591Z,14.17
2023-02-22T05:08:08.820Z,15.50
2023-02-22T05:10:42.077Z,16.37
2023-02-22T05:13:10.680Z,14.67
2023-02-22T05:15:38.619Z,17.73
2023-02-22T05:18:09.099Z,17.17
2023-02-22T05:20:44.704Z,13.03
2023-02-22T05:23:16.636Z,14.33
2023-02-22T05:25:45.237Z,16.33
2023-02-22T05:28:22.403Z,12.80
2023-02-22T05:30:55.109Z,14.57
2023-02-22T05:36:09.353Z,17.90
2023-02-22T05:38:43.842Z,15.63
2023-02-22T05:41:12.509Z,14.37
2023-02-22T05:43:41.422Z,14.00
2023-02-22T05:46:09.643Z,15.73
2023-02-22T05:48:45.432Z,15.13
2023-02-22T05:51:13.437Z,13.57
2023-02-22T05:53:47.317Z,12.67
2023-02-22T05:56:16.888Z,16.07
2023-02-22T05:58:45.259Z,16.57
2023-02-22T06:01:12.807Z,16.07
2023-02-22T06:03:40.353Z,20.43
2023-02-22T06:06:08.376Z,16.23
2023-02-22T06:08:35.964Z,15.43
2023-02-22T06:11:05.337Z,17.83
2023-02-22T06:13:35.437Z,19.20
2023-02-22T06:16:03.125Z,18.43
2023-02-22T06:18:31.334Z,21.53
2023-02-22T06:20:59.377Z,14.20
2023-02-22T06:23:27.547Z,13.37
2023-02-22T06:25:55.419Z,17.90
2023-02-22T06:28:28.559Z,12.97
2023-02-22T06:30:56.540Z,14.37
2023-02-22T06:33:24.087Z,13.93
2023-02-22T06:35:51.658Z,11.80
2023-02-22T06:38:25.796Z,14.83
2023-02-22T06:40:55.156Z,13.50
2023-02-22T06:43:24.890Z,13.00
2023-02-22T06:45:52.755Z,10.57
2023-02-22T06:48:20.602Z,12.03
2023-02-22T06:50:48.362Z,10.30
2023-02-22T06:53:16.606Z,13.20
2023-02-22T06:55:44.295Z,15.10
2023-02-22T06:58:11.937Z,9.93
2023-02-22T07:00:40.932Z,9.40
2023-02-22T07:03:08.532Z,13.00
2023-02-22T07:05:36.391Z,11.83
2023-02-22T07:08:06.221Z,10.73
2023-02-22T07:10:35.756Z,13.90
2023-02-22T07:13:03.642Z,12.90
2023-02-22T07:15:32.761Z,15.10
2023-02-22T07:18:02.609Z,12.17
2023-02-22T07:20:31.738Z,14.70
2023-02-22T07:22:59.603Z,11.10
2023-02-22T07:25:27.462Z,10.90
2023-02-22T07:27:55.079Z,11.43
2023-02-22T07:30:26.312Z,10.73
2023-02-22T07:33:02.189Z,9.57
2023-02-22T07:35:33.534Z,12.77
2023-02-22T07:38:01.140Z,14.70
2023-02-22T07:40:29.600Z,9.77
2023-02-22T07:43:02.728Z,27.27
2023-02-22T07:45:34.644Z,12.97
2023-02-22T07:48:04.327Z,9.90
2023-02-22T07:50:44.627Z,10.17
2023-02-22T07:53:20.394Z,8.40
2023-02-22T07:55:50.796Z,10.07
2023-02-22T07:58:23.457Z,8.53
2023-02-22T08:00:51.296Z,7.90
2023-02-22T08:03:21.040Z,6.87
2023-02-22T08:05:54.015Z,10.50
2023-02-22T08:08:22.105Z,11.80
2023-02-22T08:10:50.379Z,7.90
2023-02-22T08:13:19.115Z,6.90
2023-02-22T08:15:47.554Z,8.57
2023-02-22T08:18:18.298Z,10.23
2023-02-22T08:20:47.790Z,7.83
2023-02-22T08:23:17.592Z,7.63
2023-02-22T08:25:51.133Z,8.70
2023-02-22T08:28:22.867Z,16.43
2023-02-22T08:30:53.899Z,9.13
2023-02-22T08:33:22.026Z,23.03
2023-02-22T08:35:50.452Z,18.37
2023-02-22T08:38:22.564Z,11.90
2023-02-22T08:40:50.903Z,17.40
2023-02-22T08:43:19.611Z,11.97
2023-02-22T08:45:47.718Z,12.60
2023-02-22T08:48:16.046Z,13.80
2023-02-22T08:50:44.286Z,14.43
2023-02-22T08:53:14.910Z,16.37
2023-02-22T08:55:44.994Z,18.00
2023-02-22T08:58:14.270Z,16.07
2023-02-22T09:00:44.559Z,14.17
2023-02-22T09:03:14.142Z,22.57
2023-02-22T09:05:44.031Z,25.07
2023-02-22T09:08:11.865Z,22.77
2023-02-22T09:10:40.634Z,17.20
2023-02-22T09:13:10.043Z,18.33
2023-02-22T09:15:37.687Z,27.43
2023-02-22T09:18:08.372Z,24.20
2023-02-22T09:20:36.820Z,32.53
2023-02-22T09:23:09.726Z,27.07
2023-02-22T09:25:38.681Z,32.83
2023-02-22T09:28:06.595Z,39.53
2023-02-22T09:30:44.990Z,24.43
2023-02-22T09:33:15.200Z,19.40
2023-02-22T09:35:46.284Z,22.70
2023-02-22T09:38:16.142Z,23.23
2023-02-22T09:40:49.344Z,21.43
2023-02-22T09:43:27.680Z,18.40
2023-02-22T09:46:12.038Z,16.20
2023-02-22T09:48:57.999Z,19.53
2023-02-22T09:51:35.683Z,18.63
2023-02-22T09:54:07.947Z,26.87
2023-02-22T09:56:36.343Z,26.90
2023-02-22T09:59:08.719Z,20.37
2023-02-22T10:01:43.762Z,25.83
2023-02-22T10:04:19.397Z,20.03
2023-02-22T10:07:05.914Z,19.63
2023-02-22T10:09:37.566Z,24.63
2023-02-22T10:12:12.922Z,18.50
2023-02-22T10:14:52.071Z,17.10
2023-02-22T10:17:30.806Z,18.63
2023-02-22T10:20:13.389Z,23.70
2023-02-22T10:22:55.162Z,18.27
2023-02-22T10:25:26.739Z,22.53
2023-02-22T10:27:58.672Z,19.10
2023-02-22T10:30:33.355Z,17.87
2023-02-22T10:33:09.652Z,16.50
2023-02-22T10:35:41.071Z,14.10
2023-02-22T10:38:17.420Z,18.00
2023-02-22T10:40:50.410Z,22.03
2023-02-22T10:43:18.111Z,15.67
2023-02-22T10:45:45.752Z,16.50
2023-02-22T10:48:18.397Z,17.00
2023-02-22T10:50:47.456Z,17.40
2023-02-22T10:53:16.617Z,23.40
2023-02-22T10:56:07.585Z,17.67
2023-02-22T10:58:42.543Z,21.40
2023-02-22T11:01:24.680Z,19.00
2023-02-22T11:04:02.502Z,16.70
2023-02-22T11:06:30.895Z,20.87
2023-02-22T11:09:13.602Z,20.70
2023-02-22T11:11:43.715Z,19.23
2023-02-22T11:14:12.130Z,18.10
2023-02-22T11:16:43.451Z,24.27
2023-02-22T11:19:23.945Z,19.43
2023-02-22T11:21:54.179Z,19.13
2023-02-22T11:24:30.419Z,17.87
2023-02-22T11:27:03.220Z,20.83
2023-02-22T11:29:33.753Z,17.20
2023-02-22T11:32:05.086Z,21.10
2023-02-22T11:34:38.397Z,23.03
2023-02-22T11:37:34.534Z,21.17
2023-02-22T11:40:12.221Z,21.80
2023-02-22T11:42:40.071Z,18.30
2023-02-22T11:45:13.851Z,17.80
2023-02-22T11:47:57.372Z,20.20
2023-02-22T11:50:35.009Z,19.67
2023-02-22T11:53:17.360Z,22.70
2023-02-22T11:55:52.770Z,23.63
2023-02-22T11:58:33.186Z,22.67
2023-02-22T12:01:09.248Z,19.37
2023-02-22T12:03:55.269Z,15.50
2023-02-22T12:06:35.580Z,15.27
2023-02-22T12:09:13.946Z,19.53
2023-02-22T12:11:58.155Z,18.23
2023-02-22T12:14:35.441Z,18.07
2023-02-22T12:17:27.052Z,23.53
2023-02-22T12:19:59.749Z,18.60
2023-02-22T12:22:33.357Z,23.00
2023-02-22T12:25:09.919Z,17.23
2023-02-22T12:27:44.647Z,17.50
2023-02-22T12:30:19.064Z,21.10
2023-02-22T12:32:51.651Z,20.33
2023-02-22T12:35:24.355Z,17.13
2023-02-22T12:38:02.244Z,18.37
2023-02-22T12:40:37.383Z,18.17
2023-02-22T12:43:16.515Z,15.60
2023-02-22T12:45:48.180Z,19.53
2023-02-22T12:48:27.301Z,15.93
2023-02-22T12:51:00.770Z,16.43
2023-02-22T12:53:41.964Z,16.83
2023-02-22T12:56:20.142Z,20.70
2023-02-22T12:58:56.906Z,21.70
2023-02-22T13:04:21.750Z,16.77
2023-02-22T13:07:19.756Z,19.00
2023-02-22T13:10:15.069Z,17.70
2023-02-22T13:12:55.714Z,19.63
2023-02-22T13:15:32.471Z,20.23
2023-02-22T13:18:17.659Z,16.77
2023-02-22T13:20:58.257Z,14.00
2023-02-22T13:23:43.587Z,16.37
2023-02-22T13:26:26.981Z,16.00
2023-02-22T13:28:59.788Z,12.13
2023-02-22T13:31:43.727Z,13.87
2023-02-22T13:34:30.979Z,18.23
2023-02-22T13:37:17.581Z,13.47
2023-02-22T13:40:01.146Z,15.33
2023-02-22T13:42:55.298Z,15.33
2023-02-22T13:45:56.049Z,15.73
2023-02-22T13:48:49.747Z,13.03
2023-02-22T13:51:35.411Z,14.63
2023-02-22T13:54:11.170Z,12.87
2023-02-22T13:56:43.654Z,9.80
2023-02-22T13:59:25.592Z,16.67
2023-02-22T14:01:54.842Z,15.37
2023-02-22T14:04:39.049Z,11.73
2023-02-22T14:07:54.886Z,16.20
2023-02-22T14:10:50.038Z,12.30
2023-02-22T14:13:19.539Z,19.20
2023-02-22T14:16:24.138Z,20.30
2023-02-22T14:19:06.398Z,12.47
2023-02-22T14:21:38.058Z,12.00
2023-02-22T14:24:14.916Z,14.53
2023-02-22T14:27:00.080Z,12.60
2023-02-22T14:29:28.073Z,11.20
2023-02-22T14:32:10.483Z,10.57
2023-02-22T14:34:52.724Z,11.50
2023-02-22T14:37:27.096Z,13.10
2023-02-22T14:40:12.746Z,11.77
2023-02-22T14:42:45.132Z,11.30
2023-02-22T14:45:21.931Z,11.30
2023-02-22T14:48:03.194Z,12.33
2023-02-22T14:50:44.019Z,13.17
2023-02-22T14:53:25.788Z,13.43
2023-02-22T14:55:58.643Z,11.40
2023-02-22T14:58:35.434Z,11.87
2023-02-22T15:01:20.080Z,12.20
2023-02-22T15:04:01.964Z,12.00
2023-02-22T15:06:35.293Z,14.27
2023-02-22T15:09:11.684Z,12.13
2023-02-22T15:11:39.410Z,12.77
2023-02-22T15:14:25.687Z,14.70
2023-02-22T15:16:55.916Z,15.83
2023-02-22T15:19:27.852Z,13.97
2023-02-22T15:21:57.119Z,16.63
2023-02-22T15:24:27.735Z,15.10
2023-02-22T15:27:04.427Z,15.27
2023-02-22T15:29:37.105Z,16.57
2023-02-22T15:32:20.124Z,17.90
2023-02-22T15:34:49.094Z,19.37
2023-02-22T15:37:25.353Z,23.70
2023-02-22T15:39:59.139Z,17.23
2023-02-22T15:42:30.391Z,15.53
2023-02-22T15:44:58.587Z,16.97
2023-02-22T15:47:27.926Z,18.93
2023-02-22T15:50:21.177Z,20.73
2023-02-22T15:52:53.284Z,17.70
2023-02-22T15:55:25.761Z,16.30
2023-02-22T15:57:53.847Z,16.30
2023-02-22T16:00:30.675Z,16.33
2023-02-22T16:02:59.051Z,14.80
2023-02-22T16:05:37.987Z,17.27
2023-02-22T16:08:15.586Z,21.27
2023-02-22T16:10:54.192Z,16.47
2023-02-22T16:13:31.573Z,17.27
2023-02-22T16:16:02.138Z,29.53
2023-02-22T16:18:33.682Z,19.50
2023-02-22T16:21:06.499Z,19.30
2023-02-22T16:23:45.304Z,18.40
2023-02-22T16:26:26.464Z,22.23
2023-02-22T16:28:56.148Z,18.20
2023-02-22T16:31:25.752Z,17.00
2023-02-22T16:33:53.962Z,20.83
2023-02-22T16:36:36.860Z,21.67
2023-02-22T16:39:08.075Z,21.27
2023-02-22T16:41:36.163Z,21.17
2023-02-22T16:44:07.596Z,22.57
2023-02-22T16:46:36.615Z,31.03
2023-02-22T16:49:04.983Z,19.23
2023-02-22T16:54:44.461Z,19.50
2023-02-22T16:57:20.380Z,20.73
2023-02-22T16:59:52.067Z,27.10
2023-02-22T17:02:20.557Z,22.43
2023-02-22T17:04:52.610Z,26.83
2023-02-22T17:07:29.804Z,30.37
2023-02-22T17:09:58.261Z,23.37
2023-02-22T17:12:26.681Z,24.70
2023-02-22T17:14:56.770Z,24.20
2023-02-22T17:17:26.524Z,22.27
2023-02-22T17:19:55.137Z,26.30
2023-02-22T17:22:27.998Z,36.97
2023-02-22T17:24:55.682Z,44.73
2023-02-22T17:27:25.123Z,30.03
2023-02-22T17:29:52.887Z,29.47
2023-02-22T17:32:20.711Z,25.13
2023-02-22T17:34:48.347Z,32.77
2023-02-22T17:37:16.024Z,29.00
2023-02-22T17:39:47.746Z,26.00
2023-02-22T17:42:15.496Z,26.30
2023-02-22T17:44:45.179Z,23.73
2023-02-22T17:47:12.984Z,28.50
2023-02-22T17:49:46.182Z,28.83
2023-02-22T17:52:15.602Z,21.93
2023-02-22T17:54:46.471Z,24.27
2023-02-22T17:57:14.112Z,23.90
2023-02-22T17:59:42.207Z,28.23
2023-02-22T18:02:10.491Z,24.73
2023-02-22T18:04:39.557Z,22.80
2023-02-22T18:07:09.279Z,24.83
2023-02-22T18:09:39.423Z,27.40
2023-02-22T18:12:16.151Z,34.67
2023-02-22T18:17:31.435Z,24.73
2023-02-22T18:20:31.102Z,27.93
2023-02-22T18:23:00.320Z,31.97
2023-02-22T18:25:28.677Z,34.07
2023-02-22T18:27:58.048Z,24.70
2023-02-22T18:30:25.884Z,27.77
2023-02-22T18:32:53.891Z,25.97
2023-02-22T18:35:22.207Z,24.43
2023-02-22T18:37:51.746Z,26.10
2023-02-22T18:40:25.044Z,26.50
2023-02-22T18:42:52.804Z,25.63
2023-02-22T18:45:22.849Z,29.30
2023-02-22T18:47:56.585Z,28.60
2023-02-22T18:50:28.846Z,23.50
2023-02-22T18:52:56.681Z,21.50
2023-02-22T18:58:35.015Z,33.90
2023-02-22T19:01:14.096Z,29.27
2023-02-22T19:03:42.829Z,24.53
2023-02-22T19:06:19.047Z,25.63
2023-02-22T19:11:25.490Z,20.53
2023-02-22T19:14:31.810Z,25.20
2023-02-22T19:17:16.991Z,26.67
2023-02-22T19:19:45.098Z,23.80
2023-02-22T19:22:14.993Z,23.97
2023-02-22T19:24:51.530Z,25.23
2023-02-22T19:27:19.472Z,24.60
2023-02-22T19:29:53.903Z,25.67
2023-02-22T19:32:23.847Z,22.87
2023-02-22T19:35:01.985Z,26.63
2023-02-22T19:37:41.213Z,28.23
2023-02-22T19:40:10.918Z,28.67
2023-02-22T19:42:40.937Z,28.37
2023-02-22T19:45:10.342Z,26.77
2023-02-22T19:47:41.199Z,23.90
2023-02-22T19:50:12.078Z,22.93
2023-02-22T19:52:40.020Z,21.80
2023-02-22T19:55:13.233Z,26.90
2023-02-22T19:57:41.213Z,26.83
2023-02-22T20:03:09.376Z,26.63
2023-02-22T20:05:40.612Z,23.37
2023-02-22T20:08:09.610Z,29.83
2023-02-22T20:10:40.605Z,25.20
2023-02-22T20:13:08.361Z,31.67
2023-02-22T20:15:38.121Z,27.03
2023-02-22T20:18:07.151Z,28.50
2023-02-22T20:20:37.813Z,23.40
2023-02-22T20:23:07.090Z,26.57
2023-02-22T20:25:36.523Z,36.27
2023-02-22T20:28:07.895Z,32.50
2023-02-22T20:33:30.133Z,28.13
2023-02-22T20:35:57.971Z,32.10
2023-02-22T20:38:26.481Z,25.10
2023-02-22T20:40:54.848Z,32.30
2023-02-22T20:43:24.079Z,25.87
2023-02-22T20:45:54.653Z,23.57
2023-02-22T20:48:28.675Z,25.57
2023-02-22T20:50:56.581Z,26.17
2023-02-22T20:53:25.498Z,26.90
2023-02-22T20:55:59.122Z,26.77
2023-02-22T20:58:30.350Z,28.20
2023-02-22T21:01:05.230Z,35.57
2023-02-22T21:03:42.686Z,23.43
2023-02-22T21:06:15.426Z,28.33
2023-02-22T21:08:47.237Z,28.83
2023-02-22T21:11:17.996Z,36.43
2023-02-22T21:13:46.228Z,26.80
2023-02-22T21:16:32.222Z,26.90
2023-02-22T21:19:21.055Z,22.87
2023-02-22T21:21:48.946Z,26.50
2023-02-22T21:24:26.342Z,29.37
2023-02-22T21:26:55.755Z,31.37
2023-02-22T21:29:23.894Z,26.77
2023-02-22T21:31:51.804Z,24.47
2023-02-22T21:34:23.245Z,25.13
2023-02-22T21:36:59.659Z,24.70
2023-02-22T21:39:31.182Z,21.80
2023-02-22T21:42:01.935Z,31.00
2023-02-22T21:44:31.382Z,25.70
2023-02-22T21:47:00.219Z,29.20
2023-02-22T21:49:30.178Z,25.67
2023-02-22T21:51:58.302Z,26.73
2023-02-22T21:54:28.482Z,28.40
2023-02-22T21:56:56.260Z,26.90
2023-02-22T21:59:24.402Z,26.40
2023-02-22T22:01:58.498Z,23.60
2023-02-22T22:04:32.444Z,27.60
2023-02-22T22:07:01.483Z,27.43
2023-02-22T22:09:34.905Z,26.37
2023-02-22T22:12:07.517Z,25.33
2023-02-22T22:14:36.722Z,25.80
2023-02-22T22:17:09.595Z,25.47
2023-02-22T22:19:44.341Z,31.50
2023-02-22T22:22:36.658Z,24.20
2023-02-22T22:25:04.829Z,24.30
2023-02-22T22:27:40.647Z,27.20
2023-02-22T22:30:10.797Z,34.73
2023-02-22T22:32:38.515Z,26.07
2023-02-22T22:35:15.914Z,29.00
2023-02-22T22:37:44.529Z,28.90
2023-02-22T22:40:24.380Z,25.60
2023-02-22T22:42:52.127Z,26.07
2023-02-22T22:45:20.361Z,25.70
2023-02-22T22:47:48.595Z,26.50
2023-02-22T22:50:19.587Z,29.20
2023-02-22T22:52:48.892Z,25.67
2023-02-22T22:55:16.735Z,25.20
2023-02-22T22:57:44.334Z,25.03
2023-02-22T23:00:28.328Z,23.70
2023-02-22T23:02:56.214Z,22.47
2023-02-22T23:05:27.966Z,26.00
2023-02-22T23:07:59.270Z,29.37
2023-02-22T23:10:28.484Z,26.67
2023-02-22T23:12:57.091Z,23.50
2023-02-22T23:15:25.756Z,22.20
2023-02-22T23:17:56.053Z,24.50
2023-02-22T23:20:26.475Z,31.07
2023-02-22T23:22:59.177Z,24.37
2023-02-22T23:25:26.805Z,29.30
2023-02-22T23:27:55.156Z,22.73
2023-02-22T23:30:23.874Z,25.50
2023-02-22T23:32:56.748Z,27.73
2023-02-22T23:35:25.002Z,28.37
2023-02-22T23:37:53.923Z,27.20
2023-02-22T23:40:25.954Z,30.33
2023-02-22T23:42:54.843Z,28.67
2023-02-22T23:45:24.662Z,23.97
2023-02-22T23:47:54.977Z,26.90
2023-02-22T23:50:24.558Z,25.20
2023-02-22T23:52:58.430Z,28.03
2023-02-22T23:55:32.661Z,26.77
2023-02-22T23:58:00.493Z,24.00
